Time;durP1;ratioP1;P1;durP2;ratioP2;P2;SDS_P1;SDS_P2;PMS_P1;PMS_P2;Temp;Humidity;BMP_temperature;BMP_pressure;BME280_temperature;BME280_humidity;BME280_pressure;Samples;Min_cycle;Max_cycle;Signal;HPM_P1;HPM_P2
2022/01/05 00:00:43;;;;;;;9.83;2.50;;;2.60;99.90;;;;;;5003763;28;20304;-77
2022/01/05 00:03:09;;;;;;;8.10;2.53;;;2.60;99.90;;;;;;5012302;28;20205;-78
2022/01/05 00:05:35;;;;;;;7.13;2.50;;;2.60;99.90;;;;;;5020290;28;20209;-78
2022/01/05 00:08:01;;;;;;;9.07;2.30;;;2.60;99.90;;;;;;5023599;28;20720;-77
2022/01/05 00:10:27;;;;;;;8.60;2.07;;;2.60;99.90;;;;;;5012199;28;20689;-78
2022/01/05 00:12:55;;;;;;;10.23;2.53;;;2.60;99.90;;;;;;5019601;28;20166;-78
2022/01/05 00:15:22;;;;;;;7.33;2.00;;;2.50;99.90;;;;;;5022543;28;20178;-78
2022/01/05 00:17:48;;;;;;;6.37;1.83;;;2.50;99.90;;;;;;5017048;28;20174;-77
2022/01/05 00:20:14;;;;;;;10.30;2.30;;;2.50;99.90;;;;;;5011272;28;20221;-78
2022/01/05 00:22:40;;;;;;;9.13;2.13;;;2.50;99.90;;;;;;5012545;28;20277;-77
2022/01/05 00:25:07;;;;;;;9.77;1.97;;;2.50;99.90;;;;;;5016640;28;20184;-77
2022/01/05 00:27:32;;;;;;;7.07;1.90;;;2.50;99.90;;;;;;5026339;28;20178;-78
2022/01/05 00:29:58;;;;;;;10.27;2.37;;;2.50;99.90;;;;;;5013806;28;20215;-78
2022/01/05 00:32:25;;;;;;;7.23;1.90;;;2.50;99.90;;;;;;5025274;28;20182;-77
2022/01/05 00:34:52;;;;;;;4.67;1.97;;;2.50;99.90;;;;;;5018790;28;20182;-77
2022/01/05 00:37:18;;;;;;;8.27;1.90;;;2.50;99.90;;;;;;5014294;28;20181;-77
2022/01/05 00:39:44;;;;;;;9.03;2.47;;;2.50;99.90;;;;;;5030257;28;20206;-77
2022/01/05 00:42:11;;;;;;;9.07;2.47;;;2.50;99.90;;;;;;5028740;28;20244;-77
2022/01/05 00:44:36;;;;;;;6.97;1.93;;;2.50;99.90;;;;;;5022756;28;20178;-77
2022/01/05 00:47:03;;;;;;;9.83;2.60;;;2.50;99.90;;;;;;5008298;28;20186;-77
2022/01/05 00:49:30;;;;;;;10.40;2.00;;;2.50;99.90;;;;;;5018466;28;20206;-77
2022/01/05 00:51:56;;;;;;;12.17;2.30;;;2.50;99.90;;;;;;5018518;28;20166;-76
2022/01/05 00:54:27;;;;;;;10.60;2.20;;;2.40;99.90;;;;;;5020252;28;20217;-77
2022/01/05 00:56:52;;;;;;;6.10;1.93;;;2.40;99.90;;;;;;5011313;28;20276;-77
2022/01/05 00:59:19;;;;;;;11.10;2.80;;;2.40;99.90;;;;;;5025096;28;20241;-77
2022/01/05 01:01:45;;;;;;;6.40;2.07;;;2.40;99.90;;;;;;5028915;28;20627;-78
2022/01/05 01:04:11;;;;;;;7.03;2.33;;;2.40;99.90;;;;;;5029449;28;20174;-77
2022/01/05 01:06:37;;;;;;;10.30;2.60;;;2.40;99.90;;;;;;5008280;28;20604;-77
2022/01/05 01:09:02;;;;;;;8.23;2.20;;;2.40;99.90;;;;;;5028526;28;20202;-78
2022/01/05 01:11:31;;;;;;;7.77;2.50;;;2.40;99.90;;;;;;5021383;28;20225;-77
2022/01/05 01:13:57;;;;;;;8.03;2.37;;;2.40;99.90;;;;;;5011680;28;20653;-77
2022/01/05 01:16:23;;;;;;;7.10;2.30;;;2.30;99.90;;;;;;5012642;28;20269;-77
2022/01/05 01:18:50;;;;;;;12.30;2.67;;;2.30;99.90;;;;;;5009380;28;20200;-77
2022/01/05 01:21:16;;;;;;;6.33;1.97;;;2.30;99.90;;;;;;5016116;28;20205;-77
2022/01/05 01:23:54;;;;;;;8.90;3.23;;;2.30;99.90;;;;;;5019504;28;20248;-77
2022/01/05 01:26:21;;;;;;;5.47;2.10;;;2.30;99.90;;;;;;5027638;28;20574;-77
2022/01/05 01:28:47;;;;;;;6.93;2.17;;;2.40;99.90;;;;;;5020265;28;20185;-78
2022/01/05 01:31:13;;;;;;;6.87;2.13;;;2.30;99.90;;;;;;5010248;28;20202;-78
2022/01/05 01:33:38;;;;;;;6.17;2.43;;;2.40;99.90;;;;;;5024652;28;20207;-77
2022/01/05 01:36:04;;;;;;;8.90;2.83;;;2.30;99.90;;;;;;5015889;28;20200;-77
2022/01/05 01:38:36;;;;;;;8.40;2.33;;;2.30;99.90;;;;;;5014219;28;20189;-77
2022/01/05 01:41:02;;;;;;;11.17;2.40;;;2.40;99.90;;;;;;5029735;28;20224;-78
2022/01/05 01:43:40;;;;;;;9.30;2.40;;;2.40;99.90;;;;;;5015742;28;20189;-77
2022/01/05 01:46:08;;;;;;;7.37;2.10;;;2.40;99.90;;;;;;5013032;28;20787;-77
2022/01/05 01:48:34;;;;;;;9.23;2.30;;;2.40;99.90;;;;;;5029806;28;20178;-77
2022/01/05 01:50:59;;;;;;;8.13;2.37;;;2.30;99.90;;;;;;5015785;28;20212;-77
2022/01/05 01:53:25;;;;;;;10.43;2.33;;;2.30;99.90;;;;;;5013416;28;20532;-77
2022/01/05 01:55:52;;;;;;;7.57;2.23;;;2.40;99.90;;;;;;5012598;28;20205;-77
2022/01/05 01:58:21;;;;;;;16.23;2.87;;;2.40;99.90;;;;;;5014950;28;20182;-77
2022/01/05 02:00:47;;;;;;;9.40;2.30;;;2.40;99.90;;;;;;5015944;28;20202;-77
2022/01/05 02:03:14;;;;;;;4.67;2.03;;;2.40;99.90;;;;;;5012914;28;20193;-77
2022/01/05 02:05:40;;;;;;;11.87;2.57;;;2.40;99.90;;;;;;5019251;28;20189;-76
2022/01/05 02:08:18;;;;;;;11.93;2.50;;;2.40;99.90;;;;;;5004975;28;20175;-76
2022/01/05 02:10:44;;;;;;;8.47;2.27;;;2.30;99.90;;;;;;5032984;28;20213;-77
2022/01/05 02:13:10;;;;;;;9.30;2.30;;;2.30;99.90;;;;;;5028769;28;20185;-76
2022/01/05 02:15:36;;;;;;;9.50;2.80;;;2.30;99.90;;;;;;5016370;28;20278;-77
2022/01/05 02:20:31;;;;;;;11.67;2.40;;;2.20;99.90;;;;;;5027576;28;20661;-77
2022/01/05 02:22:57;;;;;;;9.73;2.77;;;2.20;99.90;;;;;;5005839;28;20659;-77
2022/01/05 02:25:23;;;;;;;5.23;2.13;;;2.20;99.90;;;;;;5032425;28;20181;-77
2022/01/05 02:27:53;;;;;;;9.77;2.40;;;2.20;99.90;;;;;;5044025;28;20201;-78
2022/01/05 02:30:26;;;;;;;8.03;2.43;;;2.30;99.90;;;;;;5014205;28;20213;-76
2022/01/05 02:32:52;;;;;;;9.93;2.30;;;2.30;99.90;;;;;;5013355;28;20182;-76
2022/01/05 02:35:18;;;;;;;9.07;2.50;;;2.30;99.90;;;;;;5012457;28;20225;-77
2022/01/05 02:37:57;;;;;;;10.10;2.57;;;2.30;99.90;;;;;;5033118;28;20200;-76
2022/01/05 02:40:23;;;;;;;8.20;2.63;;;2.30;99.90;;;;;;5012391;28;20239;-77
2022/01/05 02:42:51;;;;;;;10.77;2.37;;;2.30;99.90;;;;;;5011868;28;20171;-76
2022/01/05 02:45:17;;;;;;;10.07;2.80;;;2.30;99.90;;;;;;5021754;28;20224;-77
2022/01/05 02:47:43;;;;;;;11.97;2.20;;;2.30;99.90;;;;;;5020990;28;20178;-77
2022/01/05 02:50:11;;;;;;;11.13;2.50;;;2.30;99.90;;;;;;5023539;28;20298;-78
2022/01/05 02:52:37;;;;;;;8.23;2.30;;;2.30;99.90;;;;;;5030354;28;20189;-77
2022/01/05 02:55:04;;;;;;;10.80;2.60;;;2.30;99.90;;;;;;5029687;28;20183;-77
2022/01/05 02:57:46;;;;;;;15.83;3.43;;;2.30;99.90;;;;;;5020080;28;20197;-77
2022/01/05 03:00:13;;;;;;;11.43;2.63;;;2.30;99.90;;;;;;5015811;28;20208;-77
2022/01/05 03:02:39;;;;;;;8.83;2.07;;;2.30;99.90;;;;;;5023714;28;20230;-77
2022/01/05 03:05:05;;;;;;;10.30;2.70;;;2.30;99.90;;;;;;5007624;28;20170;-77
2022/01/05 03:07:33;;;;;;;10.00;2.10;;;2.40;99.90;;;;;;5011825;28;20257;-77
2022/01/05 03:09:59;;;;;;;7.93;2.17;;;2.30;99.90;;;;;;5018765;28;20213;-77
2022/01/05 03:12:25;;;;;;;6.73;2.17;;;2.40;99.90;;;;;;5018508;28;20178;-77
2022/01/05 03:14:57;;;;;;;7.47;2.40;;;2.40;99.90;;;;;;5014710;28;20260;-77
2022/01/05 03:17:23;;;;;;;10.73;2.50;;;2.40;99.90;;;;;;5015642;28;20549;-77
2022/01/05 03:19:49;;;;;;;7.27;2.20;;;2.50;99.90;;;;;;5024702;28;20197;-77
2022/01/05 03:22:14;;;;;;;11.23;2.23;;;2.40;99.90;;;;;;5020838;28;20205;-76
2022/01/05 03:24:40;;;;;;;9.87;1.93;;;2.40;99.90;;;;;;5020117;28;20174;-77
2022/01/05 03:27:06;;;;;;;10.63;2.30;;;2.40;99.90;;;;;;5019730;28;20182;-77
2022/01/05 03:29:31;;;;;;;8.53;2.10;;;2.40;99.90;;;;;;5011587;28;20201;-77
2022/01/05 03:31:58;;;;;;;10.40;2.10;;;2.40;99.90;;;;;;5009992;28;20201;-76
2022/01/05 03:34:23;;;;;;;13.80;2.27;;;2.40;99.90;;;;;;5020293;28;20183;-76
2022/01/05 03:36:49;;;;;;;12.37;2.13;;;2.50;99.90;;;;;;5022384;28;20606;-77
2022/01/05 03:39:15;;;;;;;10.23;2.13;;;2.40;99.90;;;;;;5010967;28;20166;-77
2022/01/05 03:41:41;;;;;;;8.90;2.13;;;2.50;99.90;;;;;;5030845;28;20185;-77
2022/01/05 03:44:07;;;;;;;9.97;2.07;;;2.40;99.90;;;;;;5010502;28;20186;-77
2022/01/05 03:47:04;;;;;;;14.47;2.67;;;2.50;99.90;;;;;;5030921;28;20188;-76
2022/01/05 03:49:30;;;;;;;8.97;2.60;;;2.50;99.90;;;;;;5014205;28;20239;-77
2022/01/05 03:51:59;;;;;;;11.47;2.03;;;2.40;99.90;;;;;;5020236;28;20174;-77
2022/01/05 03:54:24;;;;;;;11.73;2.57;;;2.40;99.90;;;;;;5019311;28;20202;-76
2022/01/05 03:56:50;;;;;;;9.00;2.40;;;2.50;99.90;;;;;;5024367;28;20217;-76
2022/01/05 03:59:15;;;;;;;12.37;2.53;;;2.40;99.90;;;;;;5011107;28;20182;-76
2022/01/05 04:01:44;;;;;;;10.70;2.80;;;2.40;99.90;;;;;;5031434;28;20193;-76
2022/01/05 04:04:10;;;;;;;9.97;2.37;;;2.40;99.90;;;;;;5017166;28;20277;-76
2022/01/05 04:06:35;;;;;;;9.83;2.03;;;2.40;99.90;;;;;;5032394;28;20337;-77
2022/01/05 04:09:01;;;;;;;12.30;2.20;;;2.40;99.90;;;;;;5027918;28;20176;-76
2022/01/05 04:11:26;;;;;;;12.50;2.37;;;2.40;99.90;;;;;;5031624;28;20292;-75
2022/01/05 04:13:54;;;;;;;11.80;2.20;;;2.40;99.90;;;;;;5028472;28;20202;-76
2022/01/05 04:16:20;;;;;;;8.80;2.40;;;2.40;99.90;;;;;;5029497;28;20178;-75
2022/01/05 04:18:45;;;;;;;9.50;2.73;;;2.50;99.90;;;;;;5043547;28;20293;-76
2022/01/05 04:21:11;;;;;;;10.37;2.23;;;2.40;99.90;;;;;;5030063;28;20196;-76
2022/01/05 04:23:36;;;;;;;9.00;2.67;;;2.40;99.90;;;;;;5036624;28;20174;-76
2022/01/05 04:26:02;;;;;;;9.17;2.53;;;2.40;99.90;;;;;;5028663;28;20189;-76
2022/01/05 04:28:28;;;;;;;11.80;2.50;;;2.50;99.90;;;;;;5024469;28;20179;-76
2022/01/05 04:30:54;;;;;;;8.33;2.40;;;2.50;99.90;;;;;;5016011;28;20217;-76
2022/01/05 04:33:19;;;;;;;10.20;2.47;;;2.50;99.90;;;;;;5014700;28;20192;-76
2022/01/05 04:35:45;;;;;;;16.60;2.00;;;2.40;99.90;;;;;;5003506;28;20642;-77
2022/01/05 04:38:11;;;;;;;8.03;2.47;;;2.50;99.90;;;;;;5016463;28;20550;-76
2022/01/05 04:40:36;;;;;;;10.60;2.57;;;2.50;99.90;;;;;;5019727;28;20202;-76
2022/01/05 04:43:18;;;;;;;12.70;2.50;;;2.50;99.90;;;;;;5029165;28;20244;-76
2022/01/05 04:45:44;;;;;;;9.57;2.30;;;2.50;99.90;;;;;;5004889;28;20249;-76
2022/01/05 04:48:09;;;;;;;12.40;2.43;;;2.50;99.90;;;;;;5011256;28;20206;-76
2022/01/05 04:50:35;;;;;;;11.40;2.23;;;2.60;99.90;;;;;;5029527;28;20201;-77
2022/01/05 04:53:01;;;;;;;8.93;2.30;;;2.60;99.90;;;;;;5010154;28;20233;-76
2022/01/05 04:55:26;;;;;;;9.73;2.50;;;2.60;99.90;;;;;;5030076;28;20177;-77
2022/01/05 04:57:52;;;;;;;14.20;2.43;;;2.60;99.90;;;;;;5010153;28;20260;-78
2022/01/05 05:00:18;;;;;;;6.97;2.10;;;2.60;99.90;;;;;;5030447;28;20276;-78
2022/01/05 05:02:43;;;;;;;10.73;2.50;;;2.60;99.90;;;;;;5011588;28;20179;-77
2022/01/05 05:05:09;;;;;;;8.50;2.53;;;2.70;99.90;;;;;;5033886;28;20239;-77
2022/01/05 05:07:53;;;;;;;11.10;2.33;;;2.70;99.90;;;;;;5016410;28;20229;-77
2022/01/05 05:10:19;;;;;;;8.73;2.17;;;2.70;99.90;;;;;;5033095;28;20255;-77
2022/01/05 05:12:45;;;;;;;10.27;2.27;;;2.80;99.90;;;;;;5026335;28;20569;-77
2022/01/05 05:15:10;;;;;;;9.40;1.87;;;2.80;99.90;;;;;;5008440;28;20170;-77
2022/01/05 05:17:36;;;;;;;9.53;2.73;;;2.80;99.90;;;;;;5025206;28;20175;-77
2022/01/05 05:20:03;;;;;;;10.60;2.37;;;2.90;99.90;;;;;;5014723;28;20204;-77
2022/01/05 05:22:28;;;;;;;13.33;2.20;;;2.90;99.90;;;;;;5026538;28;20185;-76
2022/01/05 05:24:54;;;;;;;9.70;2.40;;;3.00;99.90;;;;;;5016884;28;20274;-76
2022/01/05 05:27:19;;;;;;;8.90;2.20;;;3.00;99.90;;;;;;5035361;28;20192;-76
2022/01/05 05:29:45;;;;;;;8.27;2.20;;;3.00;99.90;;;;;;5013863;28;20293;-77
2022/01/05 05:32:13;;;;;;;9.73;2.40;;;3.10;99.90;;;;;;5013868;28;20171;-77
2022/01/05 05:34:38;;;;;;;13.20;2.60;;;3.10;99.90;;;;;;5014923;28;20585;-77
2022/01/05 05:37:04;;;;;;;15.77;2.67;;;3.00;99.90;;;;;;5012673;28;20213;-77
2022/01/05 05:39:34;;;;;;;10.23;2.50;;;3.00;99.90;;;;;;5024637;28;20237;-77
2022/01/05 05:42:00;;;;;;;10.03;2.40;;;3.00;99.90;;;;;;5025309;28;20241;-77
2022/01/05 05:44:25;;;;;;;7.13;1.97;;;3.00;99.90;;;;;;5022710;28;20170;-77
2022/01/05 05:46:51;;;;;;;15.67;2.97;;;3.00;99.90;;;;;;5022221;28;20213;-77
2022/01/05 05:49:17;;;;;;;11.63;2.53;;;3.00;99.90;;;;;;5014952;28;20273;-77
2022/01/05 05:51:42;;;;;;;12.90;2.60;;;2.90;99.90;;;;;;5009725;28;20267;-78
2022/01/05 05:54:08;;;;;;;12.00;2.10;;;2.80;99.90;;;;;;5022617;28;20174;-78
2022/01/05 05:56:33;;;;;;;12.93;2.70;;;2.80;99.90;;;;;;5033660;28;20658;-77
2022/01/05 05:58:59;;;;;;;14.10;2.40;;;2.70;99.90;;;;;;5011203;28;20185;-77
2022/01/05 06:01:25;;;;;;;11.47;2.50;;;2.70;99.90;;;;;;5008576;28;20202;-77
2022/01/05 06:03:50;;;;;;;13.10;2.67;;;2.70;99.90;;;;;;5020379;28;20192;-77
2022/01/05 06:06:16;;;;;;;11.43;2.70;;;2.60;99.90;;;;;;5020756;28;20262;-78
2022/01/05 06:08:42;;;;;;;10.37;2.43;;;2.60;99.90;;;;;;5006237;28;20553;-77
2022/01/05 06:11:08;;;;;;;9.70;2.27;;;2.50;99.90;;;;;;5024121;28;20239;-77
2022/01/05 06:13:34;;;;;;;11.40;2.67;;;2.50;99.90;;;;;;5015748;28;20549;-76
2022/01/05 06:15:59;;;;;;;12.23;2.80;;;2.60;99.90;;;;;;5023486;28;20265;-77
2022/01/05 06:18:25;;;;;;;11.93;2.97;;;2.60;99.90;;;;;;5016087;28;20216;-77
2022/01/05 06:20:51;;;;;;;11.43;2.63;;;2.60;99.90;;;;;;5022346;28;20236;-77
2022/01/05 06:23:16;;;;;;;12.63;2.70;;;2.60;99.90;;;;;;5020409;28;20210;-77
2022/01/05 06:25:42;;;;;;;9.67;2.80;;;2.70;99.90;;;;;;5021634;28;20190;-77
2022/01/05 06:28:11;;;;;;;8.93;2.70;;;2.80;99.90;;;;;;5015636;28;20186;-77
2022/01/05 06:30:41;;;;;;;12.87;2.67;;;2.80;99.90;;;;;;5008804;28;20206;-77
2022/01/05 06:33:07;;;;;;;11.93;2.53;;;2.80;99.90;;;;;;5002763;28;20630;-76
2022/01/05 06:35:34;;;;;;;12.50;3.23;;;2.80;99.90;;;;;;5014503;28;20270;-76
2022/01/05 06:38:19;;;;;;;10.97;2.67;;;2.90;99.90;;;;;;5013699;28;20208;-77
2022/01/05 06:40:45;;;;;;;12.50;2.90;;;2.90;99.90;;;;;;5025696;28;20251;-77
2022/01/05 06:43:11;;;;;;;11.13;2.37;;;2.90;99.90;;;;;;5019743;28;20179;-78
2022/01/05 06:45:44;;;;;;;13.07;2.33;;;2.90;99.90;;;;;;5029117;28;20250;-77
2022/01/05 06:48:09;;;;;;;9.43;2.70;;;2.90;99.90;;;;;;5008045;28;20185;-77
2022/01/05 06:50:35;;;;;;;10.40;2.57;;;3.00;99.90;;;;;;5013812;28;20202;-77
2022/01/05 06:53:02;;;;;;;9.87;2.63;;;3.00;99.90;;;;;;5009983;28;20174;-77
2022/01/05 06:55:28;;;;;;;10.83;2.63;;;3.00;99.90;;;;;;5000919;28;20181;-77
2022/01/05 06:58:17;;;;;;;13.37;2.63;;;3.00;99.90;;;;;;5007567;28;20293;-77
2022/01/05 07:00:43;;;;;;;10.03;2.30;;;3.00;99.90;;;;;;5011274;28;20665;-77
2022/01/05 07:03:10;;;;;;;12.30;2.80;;;3.00;99.90;;;;;;5028736;28;20265;-77
2022/01/05 07:05:36;;;;;;;8.47;2.40;;;3.10;99.90;;;;;;5007361;28;20204;-77
2022/01/05 07:08:01;;;;;;;11.80;2.70;;;3.10;99.90;;;;;;5014565;28;20178;-77
2022/01/05 07:10:45;;;;;;;12.90;2.47;;;3.10;99.90;;;;;;5026302;28;20620;-77
2022/01/05 07:13:10;;;;;;;11.93;2.43;;;3.20;99.90;;;;;;5012630;28;20178;-77
2022/01/05 07:15:36;;;;;;;9.40;2.30;;;3.20;99.90;;;;;;5006284;28;20174;-76
2022/01/05 07:18:02;;;;;;;12.90;2.50;;;3.20;99.90;;;;;;5008684;28;20221;-76
2022/01/05 07:20:28;;;;;;;8.87;2.27;;;3.20;99.90;;;;;;5006590;28;20256;-77
2022/01/05 07:22:54;;;;;;;10.13;2.30;;;3.30;99.90;;;;;;5009489;28;20178;-77
2022/01/05 07:25:28;;;;;;;12.37;2.50;;;3.30;99.90;;;;;;5006224;28;20252;-77
2022/01/05 07:27:54;;;;;;;11.63;2.43;;;3.40;99.90;;;;;;5010443;28;20185;-77
2022/01/05 07:30:20;;;;;;;14.27;2.80;;;3.40;99.90;;;;;;5011857;28;20206;-77
2022/01/05 07:32:45;;;;;;;16.00;2.80;;;3.30;99.90;;;;;;5028954;28;20235;-76
2022/01/05 07:35:11;;;;;;;14.43;2.70;;;3.20;99.90;;;;;;5014688;28;20261;-77
2022/01/05 07:37:46;;;;;;;12.17;2.70;;;3.00;99.90;;;;;;5011096;28;20229;-76
2022/01/05 07:40:12;;;;;;;7.33;1.97;;;3.00;99.90;;;;;;5040098;28;20198;-76
2022/01/05 07:42:38;;;;;;;9.07;2.53;;;3.00;99.90;;;;;;5010030;28;20183;-77
2022/01/05 07:45:20;;;;;;;13.60;2.90;;;3.00;99.90;;;;;;5023034;28;20277;-77
2022/01/05 07:47:46;;;;;;;14.63;3.07;;;3.00;99.90;;;;;;5022332;28;20614;-77
2022/01/05 07:50:14;;;;;;;10.80;2.73;;;3.00;99.90;;;;;;4994318;28;20352;-76
2022/01/05 07:52:46;;;;;;;10.53;2.23;;;3.10;99.90;;;;;;5016130;28;20185;-77
2022/01/05 07:55:12;;;;;;;15.10;2.53;;;3.10;99.90;;;;;;5011156;28;20170;-77
2022/01/05 07:58:01;;;;;;;10.10;2.73;;;3.30;99.90;;;;;;5013658;28;20197;-78
2022/01/05 08:00:27;;;;;;;12.23;2.80;;;3.30;99.90;;;;;;5007894;28;20202;-77
2022/01/05 08:02:53;;;;;;;17.43;2.57;;;3.30;99.90;;;;;;5022974;28;20182;-76
2022/01/05 08:05:18;;;;;;;11.67;3.17;;;3.50;99.90;;;;;;5019863;28;20185;-77
2022/01/05 08:07:45;;;;;;;10.43;2.87;;;3.50;99.90;;;;;;5013124;28;20185;-77
2022/01/05 08:10:11;;;;;;;12.10;3.33;;;3.50;99.90;;;;;;5015621;28;20208;-77
2022/01/05 08:12:38;;;;;;;10.97;2.50;;;3.50;99.90;;;;;;5007392;28;20179;-77
2022/01/05 08:15:06;;;;;;;14.83;2.93;;;3.50;99.90;;;;;;5024771;28;20182;-77
2022/01/05 08:17:32;;;;;;;10.50;2.70;;;3.40;99.90;;;;;;5005850;28;20182;-77
2022/01/05 08:19:58;;;;;;;8.10;2.57;;;3.20;99.90;;;;;;5021325;28;20285;-77
2022/01/05 08:22:33;;;;;;;11.47;2.70;;;3.00;99.90;;;;;;5012744;28;20197;-77
2022/01/05 08:24:59;;;;;;;12.33;2.70;;;2.80;99.90;;;;;;5021168;28;20181;-77
2022/01/05 08:27:24;;;;;;;12.90;2.77;;;2.70;99.90;;;;;;5022423;28;20310;-76
2022/01/05 08:29:51;;;;;;;14.57;2.83;;;2.70;99.90;;;;;;5021026;28;20210;-77
2022/01/05 08:32:17;;;;;;;8.53;2.60;;;2.70;99.90;;;;;;5021471;28;20178;-77
2022/01/05 08:34:42;;;;;;;15.37;3.20;;;2.60;99.90;;;;;;5001926;28;20495;-77
2022/01/05 08:37:10;;;;;;;11.63;2.80;;;2.60;99.90;;;;;;5013635;28;20185;-76
2022/01/05 08:39:35;;;;;;;11.97;3.20;;;2.60;99.90;;;;;;5007708;28;20255;-76
2022/01/05 08:42:03;;;;;;;9.10;3.30;;;2.60;99.90;;;;;;5033126;28;20211;-76
2022/01/05 08:44:29;;;;;;;13.40;3.17;;;2.50;99.90;;;;;;5017060;28;20194;-76
2022/01/05 08:46:55;;;;;;;13.07;3.47;;;2.50;99.90;;;;;;5019073;28;20174;-77
2022/01/05 08:49:20;;;;;;;11.60;3.47;;;2.50;99.90;;;;;;5019402;28;20681;-77
2022/01/05 08:51:48;;;;;;;13.93;4.10;;;2.40;99.90;;;;;;5023426;28;20206;-76
2022/01/05 08:54:14;;;;;;;11.77;3.57;;;2.40;99.90;;;;;;5030857;28;20213;-76
2022/01/05 08:56:39;;;;;;;15.80;4.13;;;2.40;99.90;;;;;;5019426;28;20186;-76
2022/01/05 08:59:05;;;;;;;14.63;3.90;;;2.50;99.90;;;;;;5020449;28;20479;-77
2022/01/05 09:01:31;;;;;;;12.97;3.63;;;2.50;99.90;;;;;;5030860;28;20209;-77
2022/01/05 09:03:57;;;;;;;14.13;4.47;;;2.60;99.90;;;;;;5024029;28;20281;-77
2022/01/05 09:06:24;;;;;;;14.53;4.23;;;2.60;99.90;;;;;;5018565;28;20268;-77
2022/01/05 09:08:50;;;;;;;9.80;3.83;;;2.60;99.90;;;;;;5023729;28;20178;-76
2022/01/05 09:11:22;;;;;;;14.70;3.77;;;2.50;99.90;;;;;;5015699;28;20228;-77
2022/01/05 09:13:50;;;;;;;12.53;3.50;;;2.50;99.90;;;;;;5033579;28;20174;-77
2022/01/05 09:16:20;;;;;;;15.30;4.20;;;2.60;99.90;;;;;;5031765;28;20178;-77
2022/01/05 09:18:46;;;;;;;10.97;4.10;;;2.60;99.90;;;;;;5027357;28;20264;-77
2022/01/05 09:21:34;;;;;;;12.73;4.40;;;2.60;99.90;;;;;;5012360;28;20581;-77
2022/01/05 09:24:07;;;;;;;14.77;4.40;;;2.60;99.90;;;;;;5032127;28;20174;-77
2022/01/05 09:26:32;;;;;;;12.43;4.23;;;2.60;99.90;;;;;;5019127;28;20185;-77
2022/01/05 09:28:58;;;;;;;9.50;3.80;;;2.70;99.90;;;;;;5010047;28;20181;-77
2022/01/05 09:31:24;;;;;;;10.60;3.83;;;2.70;99.90;;;;;;5011996;28;20217;-78
2022/01/05 09:33:50;;;;;;;11.40;3.90;;;2.80;99.90;;;;;;5017516;28;20174;-76
2022/01/05 09:36:30;;;;;;;11.00;4.30;;;2.80;99.90;;;;;;5007152;28;20189;-76
2022/01/05 09:42:05;;;;;;;10.90;4.70;;;3.00;99.90;;;;;;5025449;28;20190;-76
2022/01/05 09:44:43;;;;;;;10.00;4.57;;;3.10;99.90;;;;;;5032418;28;20185;-77
2022/01/05 09:47:42;;;;;;;12.53;4.33;;;3.10;99.90;;;;;;5025145;28;20170;-76
2022/01/05 09:50:14;;;;;;;11.70;4.90;;;3.20;99.90;;;;;;5014876;28;20205;-78
2022/01/05 09:52:46;;;;;;;13.37;5.23;;;3.30;99.90;;;;;;5014242;28;20338;-76
2022/01/05 09:55:16;;;;;;;8.20;4.37;;;3.30;99.90;;;;;;5016975;28;20170;-77
2022/01/05 09:57:44;;;;;;;8.90;4.87;;;3.40;99.90;;;;;;5014616;28;20196;-77
2022/01/05 10:00:16;;;;;;;15.63;5.27;;;3.40;99.90;;;;;;5003569;28;20198;-77
2022/01/05 10:02:49;;;;;;;10.43;4.43;;;3.40;99.90;;;;;;5007469;28;20179;-76
2022/01/05 10:05:16;;;;;;;9.57;4.37;;;3.50;99.90;;;;;;5005688;28;20683;-77
2022/01/05 10:07:42;;;;;;;9.87;4.33;;;3.50;99.90;;;;;;5016818;28;20178;-77
2022/01/05 10:10:09;;;;;;;10.40;5.07;;;3.50;99.90;;;;;;4997820;28;20195;-77
2022/01/05 10:12:35;;;;;;;9.80;5.10;;;3.60;99.90;;;;;;5021811;28;20178;-78
2022/01/05 10:15:03;;;;;;;11.50;4.57;;;3.70;99.90;;;;;;5015466;28;20175;-77
2022/01/05 10:17:41;;;;;;;13.57;5.10;;;3.70;99.90;;;;;;5025732;28;20607;-77
2022/01/05 10:20:09;;;;;;;12.50;5.57;;;3.70;99.90;;;;;;5027943;28;20280;-77
2022/01/05 10:22:40;;;;;;;13.13;5.90;;;3.60;99.90;;;;;;5017621;28;20256;-77
2022/01/05 10:25:08;;;;;;;13.73;6.40;;;3.50;99.90;;;;;;5029965;28;20192;-78
2022/01/05 10:27:34;;;;;;;14.70;6.63;;;3.50;99.90;;;;;;5018786;28;20272;-77
2022/01/05 10:30:10;;;;;;;14.07;6.37;;;3.50;99.90;;;;;;5008796;28;20222;-77
2022/01/05 10:32:39;;;;;;;13.10;5.67;;;3.50;99.90;;;;;;5014763;28;20178;-76
2022/01/05 10:35:20;;;;;;;8.17;4.90;;;3.60;99.90;;;;;;5011497;28;20174;-77
2022/01/05 10:38:04;;;;;;;11.67;6.00;;;3.70;99.90;;;;;;5011263;28;20197;-76
2022/01/05 10:40:38;;;;;;;8.10;4.07;;;3.80;99.90;;;;;;5016909;28;20581;-76
2022/01/05 10:43:12;;;;;;;10.77;4.40;;;3.90;99.90;;;;;;5009013;28;20182;-77
2022/01/05 10:45:44;;;;;;;8.80;4.20;;;3.90;99.90;;;;;;5028355;28;21286;-76
2022/01/05 10:48:18;;;;;;;11.87;4.80;;;3.90;99.90;;;;;;5023971;28;20202;-77
2022/01/05 10:51:08;;;;;;;11.13;4.57;;;3.90;99.90;;;;;;5013253;28;20210;-75
2022/01/05 10:53:35;;;;;;;11.47;4.27;;;4.00;99.90;;;;;;5022497;28;20185;-76
2022/01/05 10:56:01;;;;;;;9.07;3.90;;;4.00;99.90;;;;;;5021979;28;20174;-77
2022/01/05 10:58:41;;;;;;;7.53;3.80;;;4.00;99.90;;;;;;5015315;28;20174;-76
2022/01/05 11:01:07;;;;;;;9.73;3.80;;;4.00;99.90;;;;;;5016738;28;20281;-76
2022/01/05 11:03:39;;;;;;;10.17;4.00;;;4.00;99.90;;;;;;5008178;28;20690;-76
2022/01/05 11:06:23;;;;;;;7.43;3.70;;;4.10;99.90;;;;;;5009176;28;20186;-76
2022/01/05 11:09:04;;;;;;;16.03;3.87;;;4.10;99.90;;;;;;5034014;28;20213;-76
2022/01/05 11:11:43;;;;;;;8.73;4.30;;;4.00;99.90;;;;;;5015483;28;20202;-76
2022/01/05 11:14:10;;;;;;;10.57;4.03;;;3.80;99.90;;;;;;5009461;28;20171;-75
2022/01/05 11:16:40;;;;;;;8.30;3.97;;;3.40;99.90;;;;;;5031940;28;20261;-76
2022/01/05 11:19:20;;;;;;;6.57;3.87;;;3.20;99.90;;;;;;5018797;28;20291;-76
2022/01/05 11:22:07;;;;;;;10.60;4.93;;;3.10;99.90;;;;;;5031651;28;20208;-76
2022/01/05 11:24:39;;;;;;;11.90;4.90;;;3.00;99.90;;;;;;5018285;28;20162;-76
2022/01/05 11:27:07;;;;;;;10.60;4.53;;;2.90;99.90;;;;;;5021382;28;20186;-76
2022/01/05 11:29:35;;;;;;;9.97;4.07;;;2.90;99.90;;;;;;5011065;28;20189;-76
2022/01/05 11:32:20;;;;;;;7.40;4.30;;;2.90;99.90;;;;;;5017352;28;20202;-76
2022/01/05 11:34:47;;;;;;;10.13;4.20;;;2.90;99.90;;;;;;5024997;28;20197;-76
2022/01/05 11:37:27;;;;;;;9.70;3.80;;;2.90;99.90;;;;;;5016309;28;20170;-78
2022/01/05 11:39:55;;;;;;;7.23;3.90;;;2.90;99.90;;;;;;5020281;28;20204;-76
2022/01/05 11:42:34;;;;;;;8.20;3.90;;;2.90;99.90;;;;;;5012032;28;20205;-77
2022/01/05 11:45:00;;;;;;;6.47;3.80;;;3.00;99.90;;;;;;5025214;28;20178;-76
2022/01/05 11:47:27;;;;;;;5.70;3.37;;;3.00;99.90;;;;;;5017001;28;20182;-76
2022/01/05 11:50:26;;;;;;;5.47;3.17;;;3.00;99.90;;;;;;5018299;28;20301;-77
2022/01/05 11:52:59;;;;;;;4.07;3.47;;;3.00;99.90;;;;;;4998688;28;20181;-77
2022/01/05 11:55:30;;;;;;;6.40;3.67;;;3.00;99.90;;;;;;5010662;28;20657;-77
2022/01/05 11:58:18;;;;;;;6.33;3.53;;;3.00;99.90;;;;;;5024782;28;20256;-77
2022/01/05 12:00:46;;;;;;;4.37;3.37;;;3.10;99.90;;;;;;5030525;28;20197;-76
2022/01/05 12:03:12;;;;;;;5.90;3.70;;;3.20;99.90;;;;;;5013557;28;20181;-76
2022/01/05 12:06:32;;;;;;;4.70;3.37;;;3.20;99.90;;;;;;5030124;28;20181;-77
2022/01/05 12:08:59;;;;;;;3.73;2.70;;;3.20;99.90;;;;;;5001422;28;20642;-77
2022/01/05 12:11:40;;;;;;;3.87;2.80;;;3.10;99.90;;;;;;5020473;28;20206;-77
2022/01/05 12:14:21;;;;;;;3.93;2.43;;;3.10;99.90;;;;;;5007206;28;20181;-77
2022/01/05 12:16:59;;;;;;;4.60;2.33;;;3.10;99.90;;;;;;5023040;28;20196;-77
2022/01/05 12:19:32;;;;;;;3.23;1.67;;;3.10;99.90;;;;;;5030047;28;20520;-77
2022/01/05 12:22:01;;;;;;;2.33;1.23;;;3.10;99.90;;;;;;5013885;28;20283;-76
2022/01/05 12:25:03;;;;;;;2.23;1.10;;;3.00;99.90;;;;;;5010861;28;20273;-76
2022/01/05 12:27:54;;;;;;;3.17;1.50;;;2.90;99.90;;;;;;5010139;28;20182;-75
2022/01/05 12:30:20;;;;;;;1.23;1.13;;;2.90;99.90;;;;;;5024087;28;20305;-77
2022/01/05 12:32:59;;;;;;;2.13;1.27;;;2.90;99.90;;;;;;5010490;28;20261;-76
2022/01/05 12:35:27;;;;;;;1.90;1.10;;;2.90;99.90;;;;;;5029737;28;20205;-76
2022/01/05 12:38:06;;;;;;;3.13;1.30;;;2.90;99.90;;;;;;5014548;28;20243;-77
2022/01/05 12:40:46;;;;;;;2.90;1.50;;;2.80;99.90;;;;;;5020148;28;20208;-76
2022/01/05 12:43:14;;;;;;;2.67;1.53;;;2.80;99.90;;;;;;5010334;28;20208;-77
2022/01/05 12:46:19;;;;;;;3.67;1.63;;;2.80;99.90;;;;;;5022943;28;20178;-76
2022/01/05 12:48:52;;;;;;;1.57;1.40;;;2.90;99.90;;;;;;5006561;28;20652;-77
2022/01/05 12:51:22;;;;;;;3.20;1.63;;;2.90;99.90;;;;;;5033401;28;20202;-77
2022/01/05 12:54:00;;;;;;;1.60;1.23;;;2.90;99.90;;;;;;5021408;28;20187;-77
2022/01/05 12:56:34;;;;;;;2.53;1.30;;;2.90;99.90;;;;;;5021377;28;20187;-77
2022/01/05 12:59:06;;;;;;;1.37;1.27;;;2.90;99.90;;;;;;5026655;28;20181;-77
2022/01/05 13:01:33;;;;;;;2.60;1.50;;;2.90;99.90;;;;;;5013409;28;20202;-77
2022/01/05 13:04:00;;;;;;;2.00;1.43;;;2.90;99.90;;;;;;5013188;28;20257;-77
2022/01/05 13:06:28;;;;;;;2.30;1.53;;;2.90;99.90;;;;;;5014844;28;20194;-78
2022/01/05 13:09:05;;;;;;;1.90;1.50;;;2.90;99.90;;;;;;5015393;28;20584;-78